Terminal Aerodrome Forecast
Issued by NWS

Home | Current Version | Previous Version | Text Only | Print | Product List | Glossary On
Versions: 1 2 3 4 5 6 7 8 9 10 11 12 13 14 15 16 17 18 19 20 21 22 23 24 25 26 27
000
FTUS45 KTWC 020200 AAA
TAFOLS
TAF AMD
KOLS 020216Z 0202/0224 18011KT P6SM SCT060 BKN200
     FM021200 18012KT P6SM VCSH SCT040 BKN090
     FM021700 18016G24KT P6SM VCSH BKN040
     FM022100 19022G32KT P6SM VCSH SCT025 BKN040=

USA.gov is the U.S. government's official web portal to all federal, state and local government web resources and services.